Time;durP1;ratioP1;P1;durP2;ratioP2;P2;SDS_P1;SDS_P2;PMS_P1;PMS_P2;Temp;Humidity;BMP_temperature;BMP_pressure;BME280_temperature;BME280_humidity;BME280_pressure;Samples;Min_cycle;Max_cycle;Signal;HPM_P1;HPM_P2
2023/03/08 00:00:55;;;;;;;6.50;2.70;;;;;;;-146.25;100.00;52437.13;2105400;28;36071;-67
2023/03/08 00:01:57;;;;;;;5.57;2.78;;;;;;;-146.25;100.00;52429.03;2104275;28;33846;-68
2023/03/08 00:02:59;;;;;;;5.65;2.97;;;;;;;-146.25;100.00;52429.03;2105033;28;36601;-67
2023/03/08 00:04:01;;;;;;;6.10;2.33;;;;;;;-146.25;100.00;52459.44;2105465;28;34297;-68
2023/03/08 00:05:06;;;;;;;6.53;2.38;;;;;;;-146.25;100.00;52485.81;2104861;28;37520;-67
2023/03/08 00:06:11;;;;;;;4.30;2.45;;;;;;;-146.25;100.00;52469.56;2095997;28;36962;-68
2023/03/08 00:07:14;;;;;;;4.30;2.60;;;;;;;-146.25;100.00;52473.63;2096497;28;29534;-68
2023/03/08 00:08:16;;;;;;;5.10;2.42;;;;;;;-146.25;100.00;52447.28;2096757;28;35333;-68
2023/03/08 00:09:18;;;;;;;6.38;2.53;;;;;;;-146.25;100.00;52453.34;2105024;28;37878;-67
2023/03/08 00:10:22;;;;;;;7.38;2.83;;;;;;;-146.25;100.00;52457.41;2105731;28;29166;-67
2023/03/08 00:11:24;;;;;;;7.75;2.72;;;;;;;-146.25;100.00;52445.25;2104975;28;36560;-67
2023/03/08 00:12:27;;;;;;;5.25;3.03;;;;;;;-146.25;100.00;52453.34;2105407;28;32146;-67
2023/03/08 00:13:29;;;;;;;6.05;2.58;;;;;;;-146.25;100.00;52437.13;2096427;28;35023;-67
2023/03/08 00:14:30;;;;;;;6.15;2.90;;;;;;;-146.25;100.00;52437.13;2088179;28;38555;-67
2023/03/08 00:15:36;;;;;;;6.22;2.78;;;;;;;-146.25;100.00;52437.13;2096308;28;32498;-67
2023/03/08 00:16:41;;;;;;;6.20;2.85;;;;;;;-146.25;100.00;52453.34;2105240;28;41569;-67
2023/03/08 00:17:42;;;;;;;7.45;2.85;;;;;;;-146.25;100.00;52433.06;2105448;28;23285;-67
2023/03/08 00:18:44;;;;;;;6.85;2.88;;;;;;;-146.25;100.00;52453.34;2105477;28;33179;-67
2023/03/08 00:19:46;;;;;;;7.38;2.75;;;;;;;-146.25;100.00;52485.81;2105039;28;36519;-67
2023/03/08 00:20:58;;;;;;;7.45;2.92;;;;;;;-146.25;100.00;52457.41;2105767;28;30383;-67
2023/03/08 00:22:00;;;;;;;6.80;2.97;;;;;;;-146.25;100.00;52479.72;2096924;28;25328;-67
2023/03/08 00:23:02;;;;;;;6.50;2.75;;;;;;;-146.25;100.00;52469.56;2096586;28;35381;-67
2023/03/08 00:24:04;;;;;;;9.95;2.85;;;;;;;-146.25;100.00;52457.41;2104730;28;33518;-67
2023/03/08 00:25:09;;;;;;;7.60;2.92;;;;;;;-146.25;100.00;52485.81;2105187;28;34604;-67
2023/03/08 00:26:11;;;;;;;5.85;3.05;;;;;;;-146.25;100.00;52453.34;2105507;28;20040;-67
2023/03/08 00:27:13;;;;;;;5.80;2.88;;;;;;;-146.25;100.00;52451.31;2105202;28;38067;-67
2023/03/08 00:28:17;;;;;;;8.30;3.38;;;;;;;-146.25;100.00;52449.31;2105274;28;29965;-67
2023/03/08 00:29:19;;;;;;;6.38;3.35;;;;;;;-146.25;100.00;52465.53;2096178;28;20036;-66
2023/03/08 00:30:20;;;;;;;7.95;3.50;;;;;;;-146.25;100.00;52445.25;2096536;28;28448;-67
2023/03/08 00:31:22;;;;;;;6.72;3.08;;;;;;;-146.25;100.00;52469.56;2104812;28;33148;-66
2023/03/08 00:32:27;;;;;;;6.78;3.28;;;;;;;-146.25;100.00;52408.75;2105609;28;20037;-67
2023/03/08 00:33:31;;;;;;;10.32;3.40;;;;;;;-146.25;100.00;52465.53;2105527;28;30467;-67
2023/03/08 00:34:33;;;;;;;6.38;3.35;;;;;;;-146.25;100.00;52433.06;2105202;28;26513;-67
2023/03/08 00:35:35;;;;;;;8.45;4.00;;;;;;;-146.25;100.00;52445.25;2105595;28;20043;-67
2023/03/08 00:36:37;;;;;;;14.18;3.53;;;;;;;-146.25;100.00;52445.25;2096322;28;31232;-67
2023/03/08 00:37:38;;;;;;;7.07;3.20;;;;;;;-146.25;100.00;52500.00;2096211;28;28213;-67
2023/03/08 00:38:40;;;;;;;8.18;3.35;;;;;;;-146.25;100.00;52481.75;2096839;28;20049;-67
2023/03/08 00:39:42;;;;;;;7.93;3.35;;;;;;;-146.25;100.00;52467.56;2088051;28;24054;-67
2023/03/08 00:40:44;;;;;;;7.45;3.53;;;;;;;-146.25;100.00;52473.63;2095991;28;30738;-68
2023/03/08 00:41:45;;;;;;;6.40;3.42;;;;;;;-146.25;100.00;52441.19;2096519;28;25567;-67
2023/03/08 00:42:49;;;;;;;7.70;3.25;;;;;;;-146.25;100.00;52453.34;2097605;28;20041;-67
2023/03/08 00:43:51;;;;;;;7.78;3.67;;;;;;;-146.25;100.00;52497.97;2096119;28;34338;-67
2023/03/08 00:44:53;;;;;;;7.65;3.88;;;;;;;-146.25;100.00;52429.03;2096806;28;20879;-67
2023/03/08 00:45:55;;;;;;;6.85;3.97;;;;;;;-146.25;100.00;52418.88;2105123;28;28281;-67
2023/03/08 00:46:57;;;;;;;5.03;3.35;;;;;;;-146.25;100.00;52481.75;2096245;28;25450;-67
2023/03/08 00:47:59;;;;;;;11.23;4.28;;;;;;;-146.25;100.00;52500.00;2096480;28;20258;-67
2023/03/08 00:49:03;;;;;;;15.23;3.95;;;;;;;-146.25;100.00;52455.38;2096332;28;20923;-67
2023/03/08 00:50:06;;;;;;;6.22;3.58;;;;;;;-146.25;100.00;52449.31;2096077;28;27445;-67
2023/03/08 00:51:14;;;;;;;8.30;4.18;;;;;;;-146.25;100.00;52437.13;2104868;28;20166;-67
2023/03/08 00:52:16;;;;;;;8.32;3.53;;;;;;;-146.25;100.00;52418.88;2087615;28;31576;-67
2023/03/08 00:53:18;;;;;;;9.77;4.05;;;;;;;-146.25;100.00;52447.28;2089119;28;20792;-67
2023/03/08 00:54:20;;;;;;;4.97;3.30;;;;;;;-146.25;100.00;52465.53;2096045;28;31701;-67
2023/03/08 00:55:22;;;;;;;8.60;3.75;;;;;;;-146.25;100.00;52449.31;2097062;28;20029;-67
2023/03/08 00:56:24;;;;;;;5.60;3.65;;;;;;;-146.25;100.00;52475.66;2096178;28;20045;-67
2023/03/08 00:57:26;;;;;;;9.30;3.58;;;;;;;-146.25;100.00;52449.31;2096986;28;20049;-67
2023/03/08 00:58:30;;;;;;;7.00;3.20;;;;;;;-146.25;100.00;52471.59;2105377;28;26383;-67
2023/03/08 00:59:31;;;;;;;6.65;3.60;;;;;;;-146.25;100.00;52418.88;2105420;28;23031;-67
2023/03/08 01:00:33;;;;;;;4.88;2.90;;;;;;;-146.25;100.00;52433.06;2096581;28;20213;-67
2023/03/08 01:01:35;;;;;;;7.35;3.30;;;;;;;-146.25;100.00;52420.91;2088253;28;20049;-67
2023/03/08 01:02:39;;;;;;;6.50;3.53;;;;;;;-146.25;100.00;52469.56;2096406;28;21358;-67
2023/03/08 01:03:43;;;;;;;8.73;3.45;;;;;;;-146.25;100.00;52463.50;2104586;28;26010;-67
2023/03/08 01:04:47;;;;;;;8.80;3.88;;;;;;;-146.25;100.00;52443.22;2095600;28;31797;-68
2023/03/08 01:05:53;;;;;;;7.22;3.50;;;;;;;-146.25;100.00;52497.97;2097306;28;20124;-67
2023/03/08 01:06:54;;;;;;;7.25;4.00;;;;;;;-146.25;100.00;52483.78;2096349;28;20045;-68
2023/03/08 01:07:56;;;;;;;6.75;3.35;;;;;;;-146.25;100.00;52483.78;2096205;28;27828;-67
2023/03/08 01:08:58;;;;;;;5.15;2.88;;;;;;;-146.25;100.00;52463.50;2096472;28;20076;-67
2023/03/08 01:10:04;;;;;;;5.72;3.30;;;;;;;-146.25;100.00;52433.06;2088285;28;20131;-67
2023/03/08 01:11:08;;;;;;;6.68;3.00;;;;;;;-146.25;100.00;52471.59;2097073;28;29987;-67
2023/03/08 01:12:09;;;;;;;5.35;3.35;;;;;;;-146.25;100.00;52429.03;2104716;28;25587;-66
2023/03/08 01:13:11;;;;;;;8.75;3.78;;;;;;;-146.25;100.00;52459.44;2095633;28;26216;-66
2023/03/08 01:14:13;;;;;;;8.77;3.30;;;;;;;-146.25;100.00;52467.56;2096765;28;20040;-66
2023/03/08 01:15:15;;;;;;;7.03;3.30;;;;;;;-146.25;100.00;52481.75;2104816;28;35483;-66
2023/03/08 01:16:26;;;;;;;6.60;3.47;;;;;;;-146.25;100.00;52455.38;2096347;28;24744;-66
2023/03/08 01:17:28;;;;;;;5.93;3.20;;;;;;;-146.25;100.00;52471.59;2095927;28;35701;-66
2023/03/08 01:18:31;;;;;;;7.22;3.28;;;;;;;-146.25;100.00;52429.03;2098310;28;20806;-67
2023/03/08 01:19:35;;;;;;;7.35;3.08;;;;;;;-146.25;100.00;52422.94;2096247;28;20966;-64
2023/03/08 01:20:38;;;;;;;8.50;3.13;;;;;;;-146.25;100.00;52471.59;2080113;28;20049;-66
2023/03/08 01:21:40;;;;;;;6.43;2.92;;;;;;;-146.25;100.00;52459.44;2079752;28;27987;-66
2023/03/08 01:22:41;;;;;;;4.10;2.83;;;;;;;-146.25;100.00;52449.31;2079711;28;20080;-66
2023/03/08 01:23:43;;;;;;;5.80;3.25;;;;;;;-146.25;100.00;52443.22;2087928;28;25532;-67
2023/03/08 01:24:46;;;;;;;4.07;2.92;;;;;;;-146.25;100.00;52469.56;2105018;28;27655;-67
2023/03/08 01:25:58;;;;;;;5.07;2.83;;;;;;;-146.25;100.00;52437.13;2096575;28;20067;-66
2023/03/08 01:26:59;;;;;;;4.32;2.58;;;;;;;-146.25;100.00;52435.09;2097350;28;32581;-66
2023/03/08 01:28:02;;;;;;;6.32;3.28;;;;;;;-146.25;100.00;52459.44;2096738;28;20486;-66
2023/03/08 01:29:03;;;;;;;4.57;2.70;;;;;;;-146.25;100.00;52431.06;2096298;28;20045;-66
2023/03/08 01:30:08;;;;;;;4.47;3.00;;;;;;;-146.25;100.00;52433.06;2095913;28;36700;-66
2023/03/08 01:31:15;;;;;;;5.63;3.10;;;;;;;-146.25;100.00;52461.47;2096888;28;20040;-66
2023/03/08 01:32:17;;;;;;;6.57;3.67;;;;;;;-146.25;100.00;52473.63;2095589;28;35490;-66
2023/03/08 01:33:19;;;;;;;6.38;3.25;;;;;;;-146.25;100.00;52429.03;2087906;28;24577;-66
2023/03/08 01:34:24;;;;;;;5.30;3.55;;;;;;;-146.25;100.00;52479.72;2088493;28;20122;-67
2023/03/08 01:35:25;;;;;;;5.97;3.80;;;;;;;-146.25;100.00;52471.59;2096130;28;20891;-67
2023/03/08 01:36:28;;;;;;;7.63;3.83;;;;;;;-146.25;100.00;52473.63;2103714;28;32615;-66
2023/03/08 01:37:33;;;;;;;5.85;3.88;;;;;;;-146.25;100.00;52441.19;2104598;28;36855;-65
2023/03/08 01:38:36;;;;;;;8.25;3.80;;;;;;;-146.25;100.00;52447.28;2087979;28;20838;-68
2023/03/08 01:39:38;;;;;;;6.95;3.55;;;;;;;-146.25;100.00;52433.06;2088223;28;24713;-66
2023/03/08 01:40:40;;;;;;;7.28;3.60;;;;;;;-146.25;100.00;52477.69;2104544;28;20066;-67
2023/03/08 01:41:41;;;;;;;5.32;3.53;;;;;;;-146.25;100.00;52439.16;2105144;28;20870;-68
2023/03/08 01:42:43;;;;;;;8.20;3.60;;;;;;;-146.25;100.00;52461.47;2095853;28;20941;-68
2023/03/08 01:43:46;;;;;;;7.55;4.07;;;;;;;-146.25;100.00;52445.25;2096019;28;27357;-67
2023/03/08 01:45:05;;;;;;;6.75;3.50;;;;;;;-146.25;100.00;52408.75;2095698;28;25952;-68
2023/03/08 01:46:26;;;;;;;10.45;4.47;;;;;;;-146.25;100.00;52441.19;2090490;28;20087;-66
2023/03/08 01:47:43;;;;;;;8.60;3.80;;;;;;;-146.25;100.00;52457.41;2092773;28;20894;-68
2023/03/08 01:49:20;;;;;;;10.07;4.32;;;;;;;-146.25;100.00;52461.47;2097139;28;20033;-67
2023/03/08 01:50:23;;;;;;;7.43;3.60;;;;;;;-146.25;100.00;52437.13;2087518;28;20038;-65
2023/03/08 01:51:43;;;;;;;6.78;3.90;;;;;;;-146.25;100.00;52455.38;2088017;28;20091;-67
2023/03/08 01:52:54;;;;;;;8.57;4.20;;;;;;;-146.25;100.00;52465.53;2098504;28;38931;-67
2023/03/08 01:54:01;;;;;;;6.13;4.32;;;;;;;-146.25;100.00;52441.19;2087872;28;20909;-66
2023/03/08 01:55:08;;;;;;;6.05;4.55;;;;;;;-146.25;100.00;52445.25;2089842;28;29613;-67
2023/03/08 01:56:16;;;;;;;7.57;4.95;;;;;;;-146.25;100.00;52473.63;2096383;28;20904;-68
2023/03/08 01:57:54;;;;;;;9.30;4.53;;;;;;;-146.25;100.00;52471.59;2088499;28;20033;-67
2023/03/08 01:58:59;;;;;;;9.02;4.20;;;;;;;-146.25;100.00;52491.88;2086251;28;20139;-67
2023/03/08 02:00:21;;;;;;;7.78;4.82;;;;;;;-146.25;100.00;52457.41;2096848;28;20041;-67
2023/03/08 02:01:25;;;;;;;8.40;4.40;;;;;;;-146.25;100.00;52420.91;2096061;28;20041;-67
2023/03/08 02:02:43;;;;;;;12.82;5.70;;;;;;;-146.25;100.00;52443.22;2088423;28;20171;-67
2023/03/08 02:03:46;;;;;;;11.50;5.25;;;;;;;-146.25;100.00;52435.09;2089514;28;20041;-67
2023/03/08 02:04:51;;;;;;;9.85;5.88;;;;;;;-146.25;100.00;52453.34;2088350;28;20048;-68
2023/03/08 02:05:53;;;;;;;7.82;5.15;;;;;;;-146.25;100.00;52455.38;2096159;28;20160;-67
2023/03/08 02:06:56;;;;;;;9.73;5.22;;;;;;;-146.25;100.00;52447.28;2087623;28;20091;-66
2023/03/08 02:07:59;;;;;;;9.30;6.20;;;;;;;-146.25;100.00;52477.69;2080360;28;20053;-67
2023/03/08 02:09:05;;;;;;;11.75;5.97;;;;;;;-146.25;100.00;52453.34;2096398;28;20987;-67
2023/03/08 02:10:08;;;;;;;11.48;6.05;;;;;;;-146.25;100.00;52449.31;2095668;28;31047;-67
2023/03/08 02:11:15;;;;;;;9.57;5.80;;;;;;;-146.25;100.00;52461.47;2096590;28;23973;-66
2023/03/08 02:12:21;;;;;;;11.00;6.05;;;;;;;-146.25;100.00;52424.97;2104170;28;22629;-67
2023/03/08 02:13:24;;;;;;;16.92;5.82;;;;;;;-146.25;100.00;52469.56;2096094;28;20084;-67
2023/03/08 02:14:28;;;;;;;9.90;6.35;;;;;;;-146.25;100.00;52481.75;2088148;28;20095;-67
2023/03/08 02:15:30;;;;;;;12.65;6.55;;;;;;;-146.25;100.00;52461.47;2087707;28;20038;-68
2023/03/08 02:16:32;;;;;;;12.25;6.60;;;;;;;-146.25;100.00;52427.00;2088544;28;20049;-66
2023/03/08 02:17:38;;;;;;;12.93;6.95;;;;;;;-146.25;100.00;52469.56;2087826;28;21005;-67
2023/03/08 02:18:56;;;;;;;13.07;6.50;;;;;;;-146.25;100.00;52459.44;2096345;28;20056;-67
2023/03/08 02:20:28;;;;;;;11.20;6.25;;;;;;;-146.25;100.00;52473.63;2095503;28;20979;-67
2023/03/08 02:21:31;;;;;;;11.60;7.00;;;;;;;-146.25;100.00;52465.53;2099353;28;27692;-67
2023/03/08 02:22:46;;;;;;;11.63;7.10;;;;;;;-146.25;100.00;52471.59;2095340;28;30781;-67
2023/03/08 02:23:48;;;;;;;10.98;6.95;;;;;;;-146.25;100.00;52439.16;2097842;28;28825;-68
2023/03/08 02:24:49;;;;;;;11.45;6.82;;;;;;;-146.25;100.00;52491.88;2095360;28;33660;-67
2023/03/08 02:26:02;;;;;;;11.30;7.60;;;;;;;-146.25;100.00;52457.41;2096976;28;32354;-68
2023/03/08 02:27:11;;;;;;;11.20;6.80;;;;;;;-146.25;100.00;52408.75;2105614;28;29209;-67
2023/03/08 02:28:13;;;;;;;15.50;7.72;;;;;;;-146.25;100.00;52427.00;2106222;28;26971;-67
2023/03/08 02:29:15;;;;;;;15.55;7.93;;;;;;;-146.25;100.00;52493.91;2097474;28;25799;-67
2023/03/08 02:30:25;;;;;;;11.30;7.38;;;;;;;-146.25;100.00;52471.59;2098030;28;20041;-67
2023/03/08 02:31:27;;;;;;;15.50;8.75;;;;;;;-146.25;100.00;52431.06;2089335;28;21183;-66
2023/03/08 02:32:30;;;;;;;13.57;7.82;;;;;;;-146.25;100.00;52461.47;2089251;28;21468;-67
2023/03/08 02:33:36;;;;;;;15.02;8.13;;;;;;;-146.25;100.00;52469.56;2097489;28;20044;-68
2023/03/08 02:34:38;;;;;;;13.52;7.65;;;;;;;-146.25;100.00;52487.81;2097302;28;32760;-67
2023/03/08 02:35:41;;;;;;;14.40;7.45;;;;;;;-146.25;100.00;52441.19;2105877;28;30933;-67
2023/03/08 02:36:44;;;;;;;11.75;7.13;;;;;;;-146.25;100.00;52469.56;2097454;28;20133;-67
2023/03/08 02:37:46;;;;;;;12.85;7.95;;;;;;;-146.25;100.00;52473.63;2089271;28;24494;-66
2023/03/08 02:38:48;;;;;;;13.38;8.07;;;;;;;-146.25;100.00;52461.47;2088627;28;31336;-68
2023/03/08 02:39:49;;;;;;;18.00;8.32;;;;;;;-146.25;100.00;52491.88;2097172;28;35193;-67
2023/03/08 02:40:53;;;;;;;14.25;8.30;;;;;;;-146.25;100.00;52471.59;2106018;28;20041;-66
2023/03/08 02:41:58;;;;;;;15.57;7.97;;;;;;;-146.25;100.00;52422.94;2096919;28;26298;-67
2023/03/08 02:42:59;;;;;;;14.55;8.40;;;;;;;-146.25;100.00;52459.44;2096953;28;29523;-67
2023/03/08 02:44:01;;;;;;;16.23;8.38;;;;;;;-146.25;100.00;52473.63;2106524;28;20991;-67
2023/03/08 02:45:11;;;;;;;14.18;8.15;;;;;;;-146.25;100.00;52445.25;2097381;28;20041;-67
2023/03/08 02:46:13;;;;;;;12.27;7.80;;;;;;;-146.25;100.00;52455.38;2097367;28;23152;-67
2023/03/08 02:47:16;;;;;;;17.48;8.77;;;;;;;-146.25;100.00;52475.66;2105271;28;26069;-67
2023/03/08 02:48:20;;;;;;;16.92;8.80;;;;;;;-146.25;100.00;52467.56;2097391;28;20429;-67
2023/03/08 02:49:22;;;;;;;14.25;8.23;;;;;;;-146.25;100.00;52471.59;2089337;28;20751;-69
2023/03/08 02:50:26;;;;;;;16.27;8.77;;;;;;;-146.25;100.00;52457.41;2089157;28;20041;-67
2023/03/08 02:51:28;;;;;;;14.57;9.02;;;;;;;-146.25;100.00;52491.88;2097398;28;20446;-67
2023/03/08 02:52:31;;;;;;;15.82;8.70;;;;;;;-146.25;100.00;52465.53;2097363;28;20107;-67
2023/03/08 02:53:35;;;;;;;15.25;8.98;;;;;;;-146.25;100.00;52459.44;2088687;28;27917;-67
2023/03/08 02:54:37;;;;;;;15.05;8.38;;;;;;;-146.25;100.00;52469.56;2097694;28;20863;-67
2023/03/08 02:55:39;;;;;;;11.50;7.60;;;;;;;-146.25;100.00;52449.31;2096749;28;26270;-67
2023/03/08 02:56:44;;;;;;;14.68;7.82;;;;;;;-146.25;100.00;52437.13;2089200;28;20131;-67
2023/03/08 02:57:49;;;;;;;14.57;8.18;;;;;;;-146.25;100.00;52459.44;2098098;28;20115;-67
2023/03/08 02:58:53;;;;;;;16.98;8.75;;;;;;;-146.25;100.00;52449.31;2097307;28;20032;-67
2023/03/08 02:59:59;;;;;;;12.75;7.10;;;;;;;-146.25;100.00;52477.69;2097451;28;20041;-67
2023/03/08 03:01:02;;;;;;;15.15;8.27;;;;;;;-146.25;100.00;52463.50;2112897;28;20109;-67
2023/03/08 03:02:04;;;;;;;15.32;8.23;;;;;;;-146.25;100.00;52473.63;2114932;28;22334;-67
2023/03/08 03:03:06;;;;;;;17.75;8.70;;;;;;;-146.25;100.00;52435.09;2114311;28;24907;-67
2023/03/08 03:04:07;;;;;;;15.02;8.32;;;;;;;-146.25;100.00;52441.19;2115021;28;20044;-67
2023/03/08 03:05:11;;;;;;;16.48;8.90;;;;;;;-146.25;100.00;52469.56;2105275;28;20395;-68
2023/03/08 03:06:17;;;;;;;15.70;8.65;;;;;;;-146.25;100.00;52461.47;2089189;28;20053;-67
2023/03/08 03:07:22;;;;;;;14.60;7.75;;;;;;;-146.25;100.00;52461.47;2099125;28;20889;-67
2023/03/08 03:08:24;;;;;;;18.55;9.38;;;;;;;-146.25;100.00;52441.19;2105247;28;20330;-68
2023/03/08 03:09:29;;;;;;;15.63;8.60;;;;;;;-146.25;100.00;52443.22;2097504;28;20044;-67
2023/03/08 03:10:34;;;;;;;16.83;8.30;;;;;;;-146.25;100.00;52475.66;2097385;28;20044;-67
2023/03/08 03:11:36;;;;;;;18.13;9.57;;;;;;;-146.25;100.00;52465.53;2105778;28;20040;-68
2023/03/08 03:12:40;;;;;;;19.33;9.50;;;;;;;-146.25;100.00;52451.31;2105237;28;20821;-67
2023/03/08 03:13:46;;;;;;;18.35;8.85;;;;;;;-146.25;100.00;52459.44;2097794;28;20092;-65
2023/03/08 03:14:49;;;;;;;17.52;9.68;;;;;;;-146.25;100.00;52449.31;2088755;28;21077;-67
2023/03/08 03:15:51;;;;;;;19.48;9.73;;;;;;;-146.25;100.00;52424.97;2097919;28;20921;-66
2023/03/08 03:16:55;;;;;;;17.25;9.82;;;;;;;-146.25;100.00;52500.00;2105510;28;20464;-66
2023/03/08 03:17:58;;;;;;;14.90;8.90;;;;;;;-146.25;100.00;52471.59;2105384;28;30701;-66
2023/03/08 03:18:59;;;;;;;18.02;10.27;;;;;;;-146.25;100.00;52455.38;2108956;28;20092;-67
2023/03/08 03:20:05;;;;;;;19.65;9.77;;;;;;;-146.25;100.00;52449.31;2105979;28;20058;-67
2023/03/08 03:21:11;;;;;;;23.75;10.63;;;;;;;-146.25;100.00;52489.84;2097471;28;32444;-67
2023/03/08 03:22:13;;;;;;;19.98;10.05;;;;;;;-146.25;100.00;52443.22;2097413;28;31770;-67
2023/03/08 03:23:15;;;;;;;22.52;10.35;;;;;;;-146.25;100.00;52435.09;2088276;28;20123;-67
2023/03/08 03:24:23;;;;;;;17.58;10.35;;;;;;;-146.25;100.00;52463.50;2089580;28;20871;-67
2023/03/08 03:25:28;;;;;;;19.05;9.73;;;;;;;-146.25;100.00;52429.03;2098269;28;20170;-67
2023/03/08 03:26:30;;;;;;;21.67;10.48;;;;;;;-146.25;100.00;52420.91;2088628;28;20053;-67
2023/03/08 03:27:32;;;;;;;20.55;10.02;;;;;;;-146.25;100.00;52477.69;2080026;28;30105;-66
2023/03/08 03:28:34;;;;;;;20.65;10.77;;;;;;;-146.25;100.00;52445.25;2088862;28;20037;-66
2023/03/08 03:29:37;;;;;;;19.45;10.50;;;;;;;-146.25;100.00;52481.75;2097093;28;20040;-67
2023/03/08 03:30:45;;;;;;;20.10;9.73;;;;;;;-146.25;100.00;52455.38;2096907;28;20049;-68
2023/03/08 03:31:48;;;;;;;24.00;10.98;;;;;;;-146.25;100.00;52477.69;2088441;28;20994;-66
2023/03/08 03:32:51;;;;;;;23.80;11.10;;;;;;;-146.25;100.00;52429.03;2088915;28;20830;-67
2023/03/08 03:33:59;;;;;;;21.92;11.60;;;;;;;-146.25;100.00;52481.75;2088743;28;20968;-65
2023/03/08 03:35:02;;;;;;;20.58;11.25;;;;;;;-146.25;100.00;52431.06;2088957;28;20949;-67
2023/03/08 03:36:05;;;;;;;22.63;10.65;;;;;;;-146.25;100.00;52477.69;2088234;28;20143;-65
2023/03/08 03:37:08;;;;;;;25.20;10.90;;;;;;;-146.25;100.00;52463.50;2088802;28;20037;-67
2023/03/08 03:38:13;;;;;;;24.73;10.45;;;;;;;-146.25;100.00;52449.31;2097045;28;20041;-66
2023/03/08 03:39:18;;;;;;;22.27;10.68;;;;;;;-146.25;100.00;52489.84;2096878;28;20222;-67
2023/03/08 03:40:24;;;;;;;20.40;10.75;;;;;;;-146.25;100.00;52465.53;2088735;28;20992;-67
2023/03/08 03:41:31;;;;;;;20.30;10.00;;;;;;;-146.25;100.00;52445.25;2089366;28;20095;-67
2023/03/08 03:42:38;;;;;;;19.30;10.70;;;;;;;-146.25;100.00;52491.88;2088480;28;20779;-67
2023/03/08 03:43:45;;;;;;;20.88;10.82;;;;;;;-146.25;100.00;52469.56;2081058;28;20048;-67
2023/03/08 03:44:48;;;;;;;23.98;11.30;;;;;;;-146.25;100.00;52467.56;2072450;28;20042;-67
2023/03/08 03:45:55;;;;;;;21.70;11.18;;;;;;;-146.25;100.00;52479.72;2081224;28;20073;-66
2023/03/08 03:46:58;;;;;;;19.98;10.63;;;;;;;-146.25;100.00;52441.19;2097126;28;20049;-67
2023/03/08 03:48:01;;;;;;;18.35;9.77;;;;;;;-146.25;100.00;52469.56;2097096;28;20179;-67
2023/03/08 03:49:04;;;;;;;24.13;10.13;;;;;;;-146.25;100.00;52469.56;2080215;28;20839;-67
2023/03/08 03:50:10;;;;;;;18.65;9.80;;;;;;;-146.25;100.00;52445.25;2080718;28;20100;-67
2023/03/08 03:51:35;;;;;;;20.83;9.60;;;;;;;-146.25;100.00;52477.69;2091636;28;20559;-66
2023/03/08 03:52:55;;;;;;;20.00;10.13;;;;;;;-146.25;100.00;52459.44;2088387;28;20052;-67
2023/03/08 03:53:57;;;;;;;21.50;10.27;;;;;;;-146.25;100.00;52469.56;2088452;28;20926;-66
2023/03/08 03:55:00;;;;;;;22.55;11.07;;;;;;;-146.25;100.00;52473.63;2088589;28;20092;-67
2023/03/08 03:56:11;;;;;;;21.70;10.98;;;;;;;-146.25;100.00;52455.38;2088547;28;20053;-67
2023/03/08 03:57:14;;;;;;;;;;;;;;;-146.25;100.00;52445.25;2082069;28;20038;-66
2023/03/08 03:58:20;;;;;;;17.85;8.70;;;;;;;-146.25;100.00;52441.19;2081899;28;20055;-66
2023/03/08 03:59:24;;;;;;;19.50;9.95;;;;;;;-146.25;100.00;52451.31;2080647;28;20081;-66
2023/03/08 04:00:27;;;;;;;19.13;10.68;;;;;;;-146.25;100.00;52469.56;2088361;28;20135;-66
2023/03/08 04:01:40;;;;;;;20.73;11.02;;;;;;;-146.25;100.00;52416.84;2090263;28;20254;-67
2023/03/08 04:02:52;;;;;;;22.90;10.80;;;;;;;-146.25;100.00;52493.91;2088370;28;20152;-65
2023/03/08 04:03:56;;;;;;;22.23;10.20;;;;;;;-146.25;100.00;52453.34;2080252;28;20907;-67
2023/03/08 04:04:59;;;;;;;19.55;10.07;;;;;;;-146.25;100.00;52453.34;2088809;28;21076;-67
2023/03/08 04:06:21;;;;;;;21.60;11.10;;;;;;;-146.25;100.00;52465.53;2096386;28;20179;-67
2023/03/08 04:07:24;;;;;;;20.80;9.40;;;;;;;-146.25;100.00;52459.44;2085691;28;20080;-67
2023/03/08 04:08:31;;;;;;;20.95;10.25;;;;;;;-146.25;100.00;52459.44;2081928;28;20042;-67
2023/03/08 04:09:34;;;;;;;22.63;10.52;;;;;;;-146.25;100.00;52491.88;2080550;28;20788;-66
2023/03/08 04:10:41;;;;;;;22.65;11.15;;;;;;;-146.25;100.00;52445.25;2088711;28;20045;-66
2023/03/08 04:11:43;;;;;;;17.60;10.50;;;;;;;-146.25;100.00;52453.34;2088810;28;20046;-66
2023/03/08 04:12:51;;;;;;;22.27;11.07;;;;;;;-146.25;100.00;52461.47;2081293;28;20049;-66
2023/03/08 04:13:54;;;;;;;23.08;10.63;;;;;;;-146.25;100.00;52424.97;2089017;28;20038;-67
2023/03/08 04:14:58;;;;;;;20.08;11.02;;;;;;;-146.25;100.00;52445.25;2088228;28;20046;-67
2023/03/08 04:16:18;;;;;;;22.25;10.55;;;;;;;-146.25;100.00;52473.63;2080741;28;20602;-67
2023/03/08 04:17:20;;;;;;;21.77;10.52;;;;;;;-146.25;100.00;52394.56;2082788;28;20070;-67
2023/03/08 04:18:25;;;;;;;21.83;11.05;;;;;;;-146.25;100.00;52455.38;2088721;28;20147;-67
2023/03/08 04:19:27;;;;;;;20.00;10.65;;;;;;;-146.25;100.00;52437.13;2088581;28;20847;-67
2023/03/08 04:20:31;;;;;;;23.05;10.30;;;;;;;-146.25;100.00;52451.31;2088210;28;21005;-67
2023/03/08 04:21:34;;;;;;;21.15;10.00;;;;;;;-146.25;100.00;52508.09;2080053;28;20042;-66
2023/03/08 04:22:39;;;;;;;25.58;11.55;;;;;;;-146.25;100.00;52518.25;2088769;28;20771;-67
2023/03/08 04:23:51;;;;;;;26.48;11.98;;;;;;;-146.25;100.00;52475.66;2088313;28;20160;-67
2023/03/08 04:24:53;;;;;;;22.52;11.70;;;;;;;-146.25;100.00;52467.56;2072188;28;21038;-66
2023/03/08 04:26:10;;;;;;;24.13;12.05;;;;;;;-146.25;100.00;52451.31;2081851;28;20086;-67
2023/03/08 04:27:11;;;;;;;25.35;11.73;;;;;;;-146.25;100.00;52463.50;2088667;28;20041;-67
2023/03/08 04:28:15;;;;;;;22.85;11.45;;;;;;;-146.25;100.00;52485.81;2096169;28;31864;-68
2023/03/08 04:29:18;;;;;;;22.10;11.98;;;;;;;-146.25;100.00;52457.41;2088296;28;20069;-67
2023/03/08 04:30:20;;;;;;;24.70;12.30;;;;;;;-146.25;100.00;52475.66;2088244;28;20091;-67
2023/03/08 04:31:27;;;;;;;24.45;11.98;;;;;;;-146.25;100.00;52477.69;2088239;28;20736;-67
2023/03/08 04:32:33;;;;;;;22.25;11.35;;;;;;;-146.25;100.00;52457.41;2088400;28;20915;-67
2023/03/08 04:33:38;;;;;;;25.02;12.02;;;;;;;-146.25;100.00;52451.31;2088891;28;20033;-64
2023/03/08 04:34:41;;;;;;;23.02;11.23;;;;;;;-146.25;100.00;52487.81;2088197;28;20038;-67
2023/03/08 04:35:45;;;;;;;22.08;12.05;;;;;;;-146.25;100.00;52453.34;2080954;28;20090;-67
2023/03/08 04:36:50;;;;;;;24.35;11.73;;;;;;;-146.25;100.00;52445.25;2072051;28;20096;-67
2023/03/08 04:37:52;;;;;;;22.48;11.80;;;;;;;-146.25;100.00;52443.22;2080554;28;20046;-67
2023/03/08 04:38:57;;;;;;;26.40;12.50;;;;;;;-146.25;100.00;52471.59;2088766;28;20041;-67
2023/03/08 04:40:00;;;;;;;24.05;12.32;;;;;;;-146.25;100.00;52449.31;2088030;28;20237;-67
2023/03/08 04:41:13;;;;;;;28.52;13.02;;;;;;;-146.25;100.00;52469.56;2088791;28;20195;-66
2023/03/08 04:42:35;;;;;;;28.55;11.98;;;;;;;-146.25;100.00;52475.66;2082152;28;20167;-67
2023/03/08 04:43:39;;;;;;;26.00;12.60;;;;;;;-146.25;100.00;52481.75;2088141;28;20601;-67
2023/03/08 04:44:41;;;;;;;26.30;12.77;;;;;;;-146.25;100.00;52469.56;2088406;28;20044;-67
2023/03/08 04:45:44;;;;;;;26.05;12.23;;;;;;;-146.25;100.00;52495.94;2087922;28;20087;-67
2023/03/08 04:46:47;;;;;;;30.05;12.68;;;;;;;-146.25;100.00;52469.56;2080416;28;20894;-67
2023/03/08 04:47:55;;;;;;;27.50;11.93;;;;;;;-146.25;100.00;52457.41;2079763;28;20962;-67
2023/03/08 04:48:57;;;;;;;27.08;12.93;;;;;;;-146.25;100.00;52475.66;2080097;28;20050;-67
2023/03/08 04:50:02;;;;;;;29.45;13.43;;;;;;;-146.25;100.00;52431.06;2080651;28;20172;-67
2023/03/08 04:51:09;;;;;;;28.17;12.77;;;;;;;-146.25;100.00;52453.34;2088187;28;20041;-67
2023/03/08 04:52:11;;;;;;;22.50;12.20;;;;;;;-146.25;100.00;52453.34;2080779;28;20038;-65